createdAt,value
2022-09-04T00:02:42.319Z,98373.91
2022-09-04T00:08:03.039Z,98373.09
2022-09-04T00:13:30.965Z,98378.75
2022-09-04T00:18:38.355Z,98381.19
2022-09-04T00:23:55.883Z,98370.28
2022-09-04T00:29:06.823Z,98378.38
2022-09-04T00:34:23.827Z,98366.25
2022-09-04T00:39:37.570Z,98375.16
2022-09-04T00:45:01.984Z,98377.38
2022-09-04T00:50:07.339Z,98387.44
2022-09-04T00:55:14.845Z,98392.69
2022-09-04T01:00:22.122Z,98385.25
2022-09-04T01:05:36.238Z,98385.06
2022-09-04T01:10:51.584Z,98395.56
2022-09-04T01:16:01.720Z,98397.19
2022-09-04T01:21:24.346Z,98403.44
2022-09-04T01:26:48.146Z,98405.47
2022-09-04T01:32:01.570Z,98405.84
2022-09-04T01:37:48.221Z,98406.88
2022-09-04T01:43:11.341Z,98406.06
2022-09-04T01:48:21.629Z,98401.81
2022-09-04T01:53:32.775Z,98408.66
2022-09-04T01:58:44.455Z,98406.44
2022-09-04T02:03:57.934Z,98410.09
2022-09-04T02:09:21.959Z,98408.25
2022-09-04T02:14:40.316Z,98412.72
2022-09-04T02:19:42.172Z,98410.28
2022-09-04T02:25:02.530Z,98421.38
2022-09-04T02:30:10.556Z,98425.81
2022-09-04T02:35:24.253Z,98420.56
2022-09-04T02:40:49.702Z,98422.00
2022-09-04T02:46:03.297Z,98427.66
2022-09-04T02:51:23.847Z,98434.50
2022-09-04T02:57:09.329Z,98436.53
2022-09-04T03:02:21.484Z,98435.72
2022-09-04T03:07:33.263Z,98435.72
2022-09-04T03:13:02.602Z,98437.34
2022-09-04T03:18:31.971Z,98446.22
2022-09-04T03:24:13.977Z,98446.22
2022-09-04T03:29:16.304Z,98446.22
2022-09-04T03:34:49.783Z,98441.16
2022-09-04T03:40:10.603Z,98448.03
2022-09-04T03:45:37.125Z,98453.47
2022-09-04T03:50:57.472Z,98456.50
2022-09-04T03:56:36.549Z,98460.53
2022-09-04T04:01:41.353Z,98468.59
2022-09-04T04:06:53.812Z,98475.88
2022-09-04T04:12:14.666Z,98470.81
2022-09-04T04:18:13.495Z,98472.03
2022-09-04T04:23:34.211Z,98474.44
2022-09-04T04:29:00.043Z,98480.69
2022-09-04T04:34:04.659Z,98480.09
2022-09-04T04:39:44.850Z,98489.97
2022-09-04T04:45:30.199Z,98497.22
2022-09-04T04:51:05.423Z,98490.94
2022-09-04T04:56:46.265Z,98510.91
2022-09-04T05:02:10.979Z,98510.91
2022-09-04T05:07:37.365Z,98509.09
2022-09-04T05:12:54.257Z,98511.94
2022-09-04T05:18:06.705Z,98520.41
2022-09-04T05:23:17.311Z,98522.03
2022-09-04T05:28:40.843Z,98529.09
2022-09-04T05:33:48.713Z,98531.13
2022-09-04T05:38:58.070Z,98546.06
2022-09-04T05:44:21.642Z,98546.28
2022-09-04T05:49:32.479Z,98547.91
2022-09-04T05:54:51.403Z,98558.22
2022-09-04T06:00:16.306Z,98560.44
2022-09-04T06:05:39.744Z,98560.91
2022-09-04T06:10:59.468Z,98573.03
2022-09-04T06:16:25.820Z,98572.63
2022-09-04T06:22:02.286Z,98577.69
2022-09-04T06:27:20.994Z,98584.34
2022-09-04T06:32:37.823Z,98593.44
2022-09-04T06:37:57.670Z,98593.63
2022-09-04T06:43:29.633Z,98597.06
2022-09-04T06:49:00.976Z,98599.44
2022-09-04T06:54:26.722Z,98609.34
2022-09-04T06:59:39.970Z,98616.84
2022-09-04T07:05:09.968Z,98625.13
2022-09-04T07:10:20.748Z,98633.97
2022-09-04T07:15:31.644Z,98640.03
2022-09-04T07:20:48.809Z,98637.78
2022-09-04T07:26:13.773Z,98642.88
2022-09-04T07:31:35.288Z,98635.75
2022-09-04T07:37:23.462Z,98636.09
2022-09-04T07:42:53.994Z,98647.63
2022-09-04T07:48:09.501Z,98654.50
2022-09-04T07:53:45.061Z,98658.75
2022-09-04T07:58:55.453Z,98657.56
2022-09-04T08:04:38.318Z,98674.97
2022-09-04T08:09:58.733Z,98678.00
2022-09-04T08:15:03.963Z,98681.00
2022-09-04T08:20:24.599Z,98693.34
2022-09-04T08:25:55.901Z,98685.78
2022-09-04T08:31:11.435Z,98694.25
2022-09-04T08:36:45.402Z,98703.31
2022-09-04T08:42:06.030Z,98702.28
2022-09-04T08:47:14.211Z,98701.09
2022-09-04T08:52:50.892Z,98704.97
2022-09-04T08:58:14.522Z,98705.78
2022-09-04T09:03:56.940Z,98707.34
2022-09-04T09:09:31.325Z,98708.25
2022-09-04T09:14:36.469Z,98713.19
2022-09-04T09:20:00.734Z,98705.38
2022-09-04T09:25:14.539Z,98701.63
2022-09-04T09:30:24.851Z,98698.69
2022-09-04T09:35:58.110Z,98702.59
2022-09-04T09:41:18.148Z,98703.59
2022-09-04T09:46:41.307Z,98704.66
2022-09-04T09:52:07.657Z,98700.66
2022-09-04T09:57:36.652Z,98706.59
2022-09-04T10:03:09.473Z,98706.06
2022-09-04T10:08:35.773Z,98694.38
2022-09-04T10:13:59.510Z,98685.72
2022-09-04T10:19:19.734Z,98687.59
2022-09-04T10:24:27.372Z,98682.66
2022-09-04T10:29:48.285Z,98695.19
2022-09-04T10:34:56.326Z,98689.03
2022-09-04T10:40:56.161Z,98693.44
2022-09-04T10:46:09.809Z,98694.72
2022-09-04T10:51:49.801Z,98694.75
2022-09-04T10:56:54.581Z,98687.88
2022-09-04T11:02:22.500Z,98690.75
2022-09-04T11:07:34.566Z,98695.47
2022-09-04T11:12:51.501Z,98702.72
2022-09-04T11:18:02.030Z,98703.88
2022-09-04T11:23:31.306Z,98706.53
2022-09-04T11:29:18.082Z,98705.50
2022-09-04T11:34:20.221Z,98713.19
2022-09-04T11:39:34.347Z,98708.50
2022-09-04T11:44:48.137Z,98714.34
2022-09-04T11:50:19.218Z,98715.38
2022-09-04T11:55:40.714Z,98711.03
2022-09-04T12:01:00.547Z,98713.34
2022-09-04T12:06:49.532Z,98720.13
2022-09-04T12:12:01.092Z,98716.56
2022-09-04T12:17:10.585Z,98721.41
2022-09-04T12:22:36.469Z,98716.81
2022-09-04T12:27:59.459Z,98717.50
2022-09-04T12:33:19.920Z,98708.72
2022-09-04T12:38:47.459Z,98712.88
2022-09-04T12:44:08.823Z,98711.25
2022-09-04T12:49:49.113Z,98704.47
2022-09-04T12:55:23.068Z,98712.41
2022-09-04T13:00:40.798Z,98710.34
2022-09-04T13:06:22.426Z,98718.84
2022-09-04T13:11:31.238Z,98704.00
2022-09-04T13:17:02.227Z,98705.16
2022-09-04T13:22:24.071Z,98701.22
2022-09-04T13:27:28.725Z,98703.53
2022-09-04T13:32:55.871Z,98708.84
2022-09-04T13:38:33.962Z,98713.66
2022-09-04T13:43:49.302Z,98720.09
2022-09-04T13:48:57.891Z,98707.34
2022-09-04T13:54:05.252Z,98711.25
2022-09-04T13:59:09.828Z,98707.91
2022-09-04T14:04:26.712Z,98708.13
2022-09-04T14:09:33.044Z,98715.63
2022-09-04T14:15:19.528Z,98715.28
2022-09-04T14:20:40.691Z,98716.78
2022-09-04T14:25:57.204Z,98708.38
2022-09-04T14:31:27.591Z,98717.13
2022-09-04T14:36:43.157Z,98721.94
2022-09-04T14:42:03.772Z,98720.22
2022-09-04T14:47:27.191Z,98727.22
2022-09-04T14:52:40.104Z,98723.53
2022-09-04T14:57:57.803Z,98725.72
2022-09-04T15:03:18.286Z,98733.75
2022-09-04T15:08:39.999Z,98731.94
2022-09-04T15:13:48.203Z,98747.13
2022-09-04T15:19:05.152Z,98742.75
2022-09-04T15:24:15.140Z,98746.91
2022-09-04T15:29:27.434Z,98749.69
2022-09-04T15:34:30.534Z,98751.78
2022-09-04T15:39:48.642Z,98750.16
2022-09-04T15:44:50.854Z,98755.44
2022-09-04T15:50:08.071Z,98753.38
2022-09-04T15:55:31.227Z,98757.06
2022-09-04T16:00:38.781Z,98759.59
2022-09-04T16:05:53.397Z,98763.75
2022-09-04T16:10:58.098Z,98764.66
2022-09-04T16:16:09.163Z,98769.03
2022-09-04T16:21:22.514Z,98769.72
2022-09-04T16:26:29.145Z,98769.38
2022-09-04T16:31:35.006Z,98774.56
2022-09-04T16:37:05.226Z,98774.22
2022-09-04T16:42:22.980Z,98768.34
2022-09-04T16:47:41.286Z,98778.31
2022-09-04T16:52:46.207Z,98787.75
2022-09-04T16:58:17.243Z,98783.59
2022-09-04T17:03:24.876Z,98794.50
2022-09-04T17:08:41.905Z,98798.84
2022-09-04T17:13:58.679Z,98806.66
2022-09-04T17:19:13.577Z,98811.22
2022-09-04T17:29:22.447Z,98808.09
2022-09-04T17:30:09.538Z,98815.75
2022-09-04T17:40:44.397Z,98824.34
2022-09-04T17:41:36.341Z,98829.94
2022-09-04T17:47:06.886Z,98832.88
2022-09-04T17:52:08.946Z,98833.75
2022-09-04T17:57:51.233Z,98844.41
2022-09-04T18:03:21.050Z,98838.38
2022-09-04T18:08:32.943Z,98855.34
2022-09-04T18:14:07.053Z,98855.63
2022-09-04T18:19:15.036Z,98860.16
2022-09-04T18:24:21.651Z,98863.09
2022-09-04T18:32:36.315Z,98871.88
2022-09-04T18:37:19.828Z,98879.06
2022-09-04T18:43:18.204Z,98879.09
2022-09-04T18:50:28.382Z,98888.69
2022-09-04T18:51:54.967Z,98895.41
2022-09-04T18:57:06.580Z,98890.78
2022-09-04T19:02:30.902Z,98905.63
2022-09-04T19:07:55.677Z,98901.22
2022-09-04T19:13:22.507Z,98898.84
2022-09-04T19:18:45.367Z,98902.31
2022-09-04T19:23:58.866Z,98904.19
2022-09-04T19:29:13.686Z,98909.13
2022-09-04T19:34:18.370Z,98910.19
2022-09-04T19:45:57.247Z,98907.78
2022-09-04T19:46:11.432Z,98911.88
2022-09-04T19:53:18.246Z,98911.69
2022-09-04T19:56:01.475Z,98914.75
2022-09-04T20:01:13.198Z,98909.28
2022-09-04T20:06:36.680Z,98918.63
2022-09-04T20:11:59.341Z,98917.41
2022-09-04T20:17:31.102Z,98930.19
2022-09-04T20:22:45.565Z,98930.81
2022-09-04T20:27:54.323Z,98938.53
2022-09-04T20:33:11.516Z,98934.72
2022-09-04T20:38:23.334Z,98934.53
2022-09-04T20:43:53.375Z,98938.16
2022-09-04T20:52:50.731Z,98942.25
2022-09-04T20:54:47.997Z,98937.16
2022-09-04T21:03:06.794Z,98938.59
2022-09-04T21:06:07.141Z,98940.03
2022-09-04T21:11:38.956Z,98943.88
2022-09-04T21:16:59.373Z,98951.59
2022-09-04T21:22:20.202Z,98948.97
2022-09-04T21:27:53.239Z,98958.09
2022-09-04T21:33:27.552Z,98962.16
2022-09-04T21:38:27.333Z,98958.91
2022-09-04T21:44:06.297Z,98956.69
2022-09-04T21:49:32.813Z,98967.22
2022-09-04T21:55:58.094Z,98975.13
2022-09-04T22:02:38.447Z,98968.25
2022-09-04T22:08:51.134Z,98970.44
2022-09-04T22:13:34.894Z,98971.03
2022-09-04T22:17:43.078Z,98972.88
2022-09-04T22:23:32.672Z,98974.28
2022-09-04T22:29:26.675Z,98976.31
2022-09-04T22:35:15.566Z,98971.03
2022-09-04T22:40:22.406Z,98972.66
2022-09-04T22:45:50.629Z,98962.13
2022-09-04T22:50:52.422Z,98968.19
2022-09-04T22:56:15.727Z,98962.13
2022-09-04T23:01:36.641Z,98960.09
2022-09-04T23:12:30.320Z,98965.75
2022-09-04T23:13:47.726Z,98964.53
2022-09-04T23:21:24.958Z,98978.47
2022-09-04T23:26:48.001Z,98968.75
2022-09-04T23:29:49.918Z,98966.91
2022-09-04T23:35:36.727Z,98966.69
2022-09-04T23:40:38.539Z,98961.84
2022-09-04T23:46:01.736Z,98968.91
2022-09-04T23:51:18.083Z,98975.78
2022-09-04T23:56:29.874Z,98980.81
